Kezdőlap
METAR-TAF:

METAR-TAF

Repülőterek :

Johannesburg, Dél-afrikai Köztársaság

földrajzi szélesség: 26-08S, földrajzi hosszúság: 028-14E, magasság: 1694 m

Jelenlegi meteorológiai megfigyelések

A jelentés 44 perccel ezelõtt készült, 05:00 UTC
Déli szél 3 kt, délkeleti és délnyugati között változik
Hőmérséklet 6°C
Páratartalom 75%
Légköri nyomás 1031 hPa
Látótávolság: 6000 m

METAR: FAOR 140500Z 17003KT 140V220 6000 NSC 06/02 Q1031 TEMPO 5000 BR

Idő: 07:44 (05:44 UTC)

Előrejelzés

A jelentés 1 órával és 44 perccel ezelõtt készült, 04:00 UTC
Az előrejelzés 14-én 06 óra UTC és 15-én 12 óra UTC között érvényes
Különbözõ irányokból fújó szél 3 kt
Látótávolság 10 km, vagy több
felhőtlen 1500 m magasságban, és nincs gomolyfelhõ

TAF: FAOR 140400Z 1406/1512 VRB03KT CAVOK TX18/1412Z TN06/1504Z

Meteorológiai megfigyelések és előrejelzések több, mint 4000 repülőtéren (METAR és TAF jelentéseket).

A térképen piros és sárga pontok jelzik az elérhető meteorológiai állomásokat.

Mozgassa az egeret a pont fölött, hogy megjelenjen az állomás neve.

Azután kattintson az időjárási megfigyelések és előrejelzések megtekintéséhez.

A térkép megváltoztatása: kattintson a fekete keresztel jelölt zöld gombra ráközelítéshez, a vonallal jelölt zöld gombra távolításhoz, vagy a zöld nyilakra a szomszédos térképek eléréséhez.


METAR-TAF: